Terminal Aerodrome Forecast
Issued by NWS Milwaukee/Sullivan, WI

Home | Current Version | Previous Version | Text Only | Print | Product List | Glossary On
Versions: 1 2 3 4 5 6 7 8 9 10 11 12 13 14 15 16 17 18 19 20 21 22 23 24 25 26 27 28 29 30 31 32 33 34 35 36 37 38 39
000
FTUS43 KMKX 251516 AAA
TAFMSN
TAF AMD
KMSN 251516Z 2515/2612 30005KT P6SM FEW040
     FM251600 32009KT P6SM FEW040
     FM260000 VRB03KT P6SM FEW250
     FM260800 00000KT 5SM BR SKC
     FM261100 VRB03KT P6SM SKC=

USA.gov is the U.S. government's official web portal to all federal, state and local government web resources and services.